sensor_id;sensor_type;location;lat;lon;timestamp;P1;durP1;ratioP1;P2;durP2;ratioP2
12024;SDS011;6073;53.230;10.444;2023-08-30T00:00:04;4.22;;;2.90;;
12024;SDS011;6073;53.230;10.444;2023-08-30T00:02:30;2.88;;;2.38;;
12024;SDS011;6073;53.230;10.444;2023-08-30T00:04:59;3.25;;;2.17;;
12024;SDS011;6073;53.230;10.444;2023-08-30T00:07:25;2.53;;;2.28;;
12024;SDS011;6073;53.230;10.444;2023-08-30T00:09:51;2.78;;;2.33;;
12024;SDS011;6073;53.230;10.444;2023-08-30T00:12:17;3.42;;;2.17;;
12024;SDS011;6073;53.230;10.444;2023-08-30T00:14:42;2.92;;;2.35;;
12024;SDS011;6073;53.230;10.444;2023-08-30T00:17:08;3.45;;;2.80;;
12024;SDS011;6073;53.230;10.444;2023-08-30T00:19:34;2.80;;;2.60;;
12024;SDS011;6073;53.230;10.444;2023-08-30T00:21:59;2.88;;;2.55;;
12024;SDS011;6073;53.230;10.444;2023-08-30T00:24:25;3.00;;;2.38;;
12024;SDS011;6073;53.230;10.444;2023-08-30T00:26:51;2.50;;;2.30;;
12024;SDS011;6073;53.230;10.444;2023-08-30T00:29:16;4.82;;;2.42;;
12024;SDS011;6073;53.230;10.444;2023-08-30T00:31:42;2.50;;;2.30;;
12024;SDS011;6073;53.230;10.444;2023-08-30T00:34:08;2.50;;;2.30;;
12024;SDS011;6073;53.230;10.444;2023-08-30T00:36:33;2.88;;;2.35;;
12024;SDS011;6073;53.230;10.444;2023-08-30T00:38:59;3.28;;;2.97;;
12024;SDS011;6073;53.230;10.444;2023-08-30T00:41:24;2.88;;;2.58;;
12024;SDS011;6073;53.230;10.444;2023-08-30T00:43:50;2.88;;;2.33;;
12024;SDS011;6073;53.230;10.444;2023-08-30T00:46:15;2.50;;;2.30;;
12024;SDS011;6073;53.230;10.444;2023-08-30T00:48:41;3.55;;;2.25;;
12024;SDS011;6073;53.230;10.444;2023-08-30T00:51:08;2.90;;;2.30;;
12024;SDS011;6073;53.230;10.444;2023-08-30T00:53:34;2.90;;;2.20;;
12024;SDS011;6073;53.230;10.444;2023-08-30T00:56:00;2.47;;;1.95;;
12024;SDS011;6073;53.230;10.444;2023-08-30T00:58:25;2.15;;;2.00;;
12024;SDS011;6073;53.230;10.444;2023-08-30T01:00:54;3.40;;;2.30;;
12024;SDS011;6073;53.230;10.444;2023-08-30T01:03:20;4.15;;;2.13;;
12024;SDS011;6073;53.230;10.444;2023-08-30T01:05:46;3.40;;;2.28;;
12024;SDS011;6073;53.230;10.444;2023-08-30T01:08:12;3.20;;;2.38;;
12024;SDS011;6073;53.230;10.444;2023-08-30T01:10:41;3.40;;;2.50;;
12024;SDS011;6073;53.230;10.444;2023-08-30T01:13:17;2.63;;;2.30;;
12024;SDS011;6073;53.230;10.444;2023-08-30T01:15:46;3.95;;;2.72;;
12024;SDS011;6073;53.230;10.444;2023-08-30T01:18:12;2.30;;;2.10;;
12024;SDS011;6073;53.230;10.444;2023-08-30T01:20:40;2.47;;;2.28;;
12024;SDS011;6073;53.230;10.444;2023-08-30T01:26:37;2.28;;;2.08;;
12024;SDS011;6073;53.230;10.444;2023-08-30T01:29:11;3.20;;;2.63;;
12024;SDS011;6073;53.230;10.444;2023-08-30T01:31:37;2.35;;;2.15;;
12024;SDS011;6073;53.230;10.444;2023-08-30T01:34:05;3.20;;;2.40;;
12024;SDS011;6073;53.230;10.444;2023-08-30T01:36:31;2.72;;;2.40;;
12024;SDS011;6073;53.230;10.444;2023-08-30T01:39:00;2.60;;;2.40;;
12024;SDS011;6073;53.230;10.444;2023-08-30T01:41:26;2.67;;;2.45;;
12024;SDS011;6073;53.230;10.444;2023-08-30T01:43:53;2.72;;;2.50;;
12024;SDS011;6073;53.230;10.444;2023-08-30T01:46:20;2.65;;;2.38;;
12024;SDS011;6073;53.230;10.444;2023-08-30T01:48:47;3.30;;;2.42;;
12024;SDS011;6073;53.230;10.444;2023-08-30T01:51:13;2.47;;;2.20;;
12024;SDS011;6073;53.230;10.444;2023-08-30T01:53:42;3.00;;;2.05;;
12024;SDS011;6073;53.230;10.444;2023-08-30T01:56:09;2.70;;;2.50;;
12024;SDS011;6073;53.230;10.444;2023-08-30T01:58:35;3.70;;;2.30;;
12024;SDS011;6073;53.230;10.444;2023-08-30T02:01:01;2.38;;;2.17;;
12024;SDS011;6073;53.230;10.444;2023-08-30T02:03:26;5.85;;;2.45;;
12024;SDS011;6073;53.230;10.444;2023-08-30T02:05:57;2.97;;;2.28;;
12024;SDS011;6073;53.230;10.444;2023-08-30T02:08:35;2.47;;;2.28;;
12024;SDS011;6073;53.230;10.444;2023-08-30T02:11:07;3.05;;;2.17;;
12024;SDS011;6073;53.230;10.444;2023-08-30T02:13:37;3.38;;;2.50;;
12024;SDS011;6073;53.230;10.444;2023-08-30T02:16:04;3.35;;;2.17;;
12024;SDS011;6073;53.230;10.444;2023-08-30T02:18:32;2.58;;;2.38;;
12024;SDS011;6073;53.230;10.444;2023-08-30T02:20:58;2.95;;;2.20;;
12024;SDS011;6073;53.230;10.444;2023-08-30T02:23:24;2.30;;;2.20;;
12024;SDS011;6073;53.230;10.444;2023-08-30T02:25:50;2.70;;;2.50;;
12024;SDS011;6073;53.230;10.444;2023-08-30T02:28:15;2.80;;;2.60;;
12024;SDS011;6073;53.230;10.444;2023-08-30T02:30:41;3.35;;;2.33;;
12024;SDS011;6073;53.230;10.444;2023-08-30T02:33:07;3.88;;;2.20;;
12024;SDS011;6073;53.230;10.444;2023-08-30T02:35:32;2.58;;;2.38;;
12024;SDS011;6073;53.230;10.444;2023-08-30T02:37:58;2.60;;;2.40;;
12024;SDS011;6073;53.230;10.444;2023-08-30T02:40:24;2.28;;;2.08;;
12024;SDS011;6073;53.230;10.444;2023-08-30T02:42:49;2.40;;;2.20;;
12024;SDS011;6073;53.230;10.444;2023-08-30T02:45:15;3.05;;;2.30;;
12024;SDS011;6073;53.230;10.444;2023-08-30T02:47:41;2.63;;;2.42;;
12024;SDS011;6073;53.230;10.444;2023-08-30T02:50:06;3.05;;;1.98;;
12024;SDS011;6073;53.230;10.444;2023-08-30T02:52:32;3.00;;;2.13;;
12024;SDS011;6073;53.230;10.444;2023-08-30T02:54:57;2.40;;;2.20;;
12024;SDS011;6073;53.230;10.444;2023-08-30T02:57:23;2.60;;;2.40;;
12024;SDS011;6073;53.230;10.444;2023-08-30T02:59:48;3.60;;;2.50;;
12024;SDS011;6073;53.230;10.444;2023-08-30T03:02:14;3.60;;;2.40;;
12024;SDS011;6073;53.230;10.444;2023-08-30T03:04:40;2.90;;;2.45;;
12024;SDS011;6073;53.230;10.444;2023-08-30T03:07:05;2.70;;;2.50;;
12024;SDS011;6073;53.230;10.444;2023-08-30T03:09:31;2.33;;;2.13;;
12024;SDS011;6073;53.230;10.444;2023-08-30T03:11:56;2.90;;;2.60;;
12024;SDS011;6073;53.230;10.444;2023-08-30T03:14:22;2.50;;;2.30;;
12024;SDS011;6073;53.230;10.444;2023-08-30T03:16:48;4.03;;;2.78;;
12024;SDS011;6073;53.230;10.444;2023-08-30T03:19:13;3.80;;;2.53;;
12024;SDS011;6073;53.230;10.444;2023-08-30T03:21:42;2.70;;;2.50;;
12024;SDS011;6073;53.230;10.444;2023-08-30T03:24:07;2.45;;;2.25;;
12024;SDS011;6073;53.230;10.444;2023-08-30T03:26:33;2.72;;;2.53;;
12024;SDS011;6073;53.230;10.444;2023-08-30T03:28:58;2.38;;;2.17;;
12024;SDS011;6073;53.230;10.444;2023-08-30T03:31:24;3.22;;;2.92;;
12024;SDS011;6073;53.230;10.444;2023-08-30T03:33:49;3.00;;;2.70;;
12024;SDS011;6073;53.230;10.444;2023-08-30T03:36:16;3.33;;;2.63;;
12024;SDS011;6073;53.230;10.444;2023-08-30T03:38:43;3.88;;;2.45;;
12024;SDS011;6073;53.230;10.444;2023-08-30T03:41:10;2.85;;;2.60;;
12024;SDS011;6073;53.230;10.444;2023-08-30T03:43:36;2.88;;;2.67;;
12024;SDS011;6073;53.230;10.444;2023-08-30T03:46:02;3.20;;;2.80;;
12024;SDS011;6073;53.230;10.444;2023-08-30T03:48:28;6.55;;;3.53;;
12024;SDS011;6073;53.230;10.444;2023-08-30T03:50:54;3.13;;;2.83;;
12024;SDS011;6073;53.230;10.444;2023-08-30T03:53:20;2.92;;;2.70;;
12024;SDS011;6073;53.230;10.444;2023-08-30T03:55:46;3.20;;;2.90;;
12024;SDS011;6073;53.230;10.444;2023-08-30T03:58:11;2.75;;;2.55;;
12024;SDS011;6073;53.230;10.444;2023-08-30T04:00:37;3.28;;;2.60;;
12024;SDS011;6073;53.230;10.444;2023-08-30T04:03:04;2.90;;;2.40;;
12024;SDS011;6073;53.230;10.444;2023-08-30T04:05:34;2.55;;;2.35;;
12024;SDS011;6073;53.230;10.444;2023-08-30T04:08:01;2.70;;;2.50;;
12024;SDS011;6073;53.230;10.444;2023-08-30T04:10:37;3.13;;;2.38;;
12024;SDS011;6073;53.230;10.444;2023-08-30T04:13:03;3.33;;;2.95;;
12024;SDS011;6073;53.230;10.444;2023-08-30T04:15:36;2.58;;;2.38;;
12024;SDS011;6073;53.230;10.444;2023-08-30T04:18:03;2.80;;;2.58;;
12024;SDS011;6073;53.230;10.444;2023-08-30T04:20:30;4.00;;;2.88;;
12024;SDS011;6073;53.230;10.444;2023-08-30T04:22:57;3.60;;;2.97;;
12024;SDS011;6073;53.230;10.444;2023-08-30T04:25:24;2.70;;;2.40;;
12024;SDS011;6073;53.230;10.444;2023-08-30T04:27:50;3.22;;;2.92;;
12024;SDS011;6073;53.230;10.444;2023-08-30T04:30:16;2.80;;;2.60;;
12024;SDS011;6073;53.230;10.444;2023-08-30T04:32:42;3.03;;;2.72;;
12024;SDS011;6073;53.230;10.444;2023-08-30T04:35:07;2.95;;;2.63;;
12024;SDS011;6073;53.230;10.444;2023-08-30T04:37:33;3.00;;;2.70;;
12024;SDS011;6073;53.230;10.444;2023-08-30T04:39:59;3.08;;;2.75;;
12024;SDS011;6073;53.230;10.444;2023-08-30T04:42:25;3.70;;;3.33;;
12024;SDS011;6073;53.230;10.444;2023-08-30T04:44:51;4.25;;;3.58;;
12024;SDS011;6073;53.230;10.444;2023-08-30T04:47:19;4.90;;;3.80;;
12024;SDS011;6073;53.230;10.444;2023-08-30T04:49:49;4.72;;;3.90;;
12024;SDS011;6073;53.230;10.444;2023-08-30T04:52:16;5.75;;;3.60;;
12024;SDS011;6073;53.230;10.444;2023-08-30T04:54:41;4.40;;;3.45;;
12024;SDS011;6073;53.230;10.444;2023-08-30T04:57:07;6.35;;;3.60;;
12024;SDS011;6073;53.230;10.444;2023-08-30T04:59:33;4.90;;;3.67;;
12024;SDS011;6073;53.230;10.444;2023-08-30T05:01:59;4.45;;;3.40;;
12024;SDS011;6073;53.230;10.444;2023-08-30T05:04:24;3.33;;;3.03;;
12024;SDS011;6073;53.230;10.444;2023-08-30T05:06:50;4.78;;;3.38;;
12024;SDS011;6073;53.230;10.444;2023-08-30T05:09:15;3.47;;;3.17;;
12024;SDS011;6073;53.230;10.444;2023-08-30T05:11:41;3.90;;;3.40;;
12024;SDS011;6073;53.230;10.444;2023-08-30T05:14:07;4.78;;;3.42;;
12024;SDS011;6073;53.230;10.444;2023-08-30T05:16:35;5.32;;;3.88;;
12024;SDS011;6073;53.230;10.444;2023-08-30T05:19:00;3.92;;;3.53;;
12024;SDS011;6073;53.230;10.444;2023-08-30T05:21:26;5.13;;;4.05;;
12024;SDS011;6073;53.230;10.444;2023-08-30T05:23:51;7.32;;;4.20;;
12024;SDS011;6073;53.230;10.444;2023-08-30T05:26:17;4.82;;;3.65;;
12024;SDS011;6073;53.230;10.444;2023-08-30T05:28:44;4.53;;;3.53;;
12024;SDS011;6073;53.230;10.444;2023-08-30T05:31:10;4.38;;;3.58;;
12024;SDS011;6073;53.230;10.444;2023-08-30T05:33:35;4.25;;;3.85;;
12024;SDS011;6073;53.230;10.444;2023-08-30T05:36:01;4.28;;;3.88;;
12024;SDS011;6073;53.230;10.444;2023-08-30T05:38:27;6.63;;;4.55;;
12024;SDS011;6073;53.230;10.444;2023-08-30T05:40:53;6.82;;;4.90;;
12024;SDS011;6073;53.230;10.444;2023-08-30T05:43:18;6.68;;;5.93;;
12024;SDS011;6073;53.230;10.444;2023-08-30T05:45:44;7.72;;;5.25;;
12024;SDS011;6073;53.230;10.444;2023-08-30T05:48:09;7.72;;;5.38;;
12024;SDS011;6073;53.230;10.444;2023-08-30T05:50:35;8.70;;;5.88;;
12024;SDS011;6073;53.230;10.444;2023-08-30T05:53:00;5.50;;;4.88;;
12024;SDS011;6073;53.230;10.444;2023-08-30T05:55:27;8.10;;;5.75;;
12024;SDS011;6073;53.230;10.444;2023-08-30T05:57:53;7.10;;;5.65;;
12024;SDS011;6073;53.230;10.444;2023-08-30T06:00:18;6.50;;;5.80;;
12024;SDS011;6073;53.230;10.444;2023-08-30T06:02:45;6.65;;;5.72;;
12024;SDS011;6073;53.230;10.444;2023-08-30T06:05:10;6.72;;;5.43;;
12024;SDS011;6073;53.230;10.444;2023-08-30T06:07:36;6.18;;;5.35;;
12024;SDS011;6073;53.230;10.444;2023-08-30T06:10:02;6.30;;;5.32;;
12024;SDS011;6073;53.230;10.444;2023-08-30T06:12:27;7.10;;;6.03;;
12024;SDS011;6073;53.230;10.444;2023-08-30T06:14:53;6.00;;;5.30;;
12024;SDS011;6073;53.230;10.444;2023-08-30T06:17:19;6.35;;;5.72;;
12024;SDS011;6073;53.230;10.444;2023-08-30T06:19:45;6.50;;;5.57;;
12024;SDS011;6073;53.230;10.444;2023-08-30T06:22:11;4.40;;;4.00;;
12024;SDS011;6073;53.230;10.444;2023-08-30T06:24:37;6.25;;;4.53;;
12024;SDS011;6073;53.230;10.444;2023-08-30T06:27:02;5.53;;;4.45;;
12024;SDS011;6073;53.230;10.444;2023-08-30T06:29:28;4.68;;;4.28;;
12024;SDS011;6073;53.230;10.444;2023-08-30T06:31:54;4.75;;;4.10;;
12024;SDS011;6073;53.230;10.444;2023-08-30T06:34:19;4.07;;;3.65;;
12024;SDS011;6073;53.230;10.444;2023-08-30T06:36:45;4.40;;;3.78;;
12024;SDS011;6073;53.230;10.444;2023-08-30T06:39:10;3.78;;;3.40;;
12024;SDS011;6073;53.230;10.444;2023-08-30T06:41:36;3.65;;;3.35;;
12024;SDS011;6073;53.230;10.444;2023-08-30T06:44:01;3.95;;;3.53;;
12024;SDS011;6073;53.230;10.444;2023-08-30T06:46:28;3.63;;;3.28;;
12024;SDS011;6073;53.230;10.444;2023-08-30T06:48:53;3.85;;;3.47;;
12024;SDS011;6073;53.230;10.444;2023-08-30T06:51:19;3.88;;;3.53;;
12024;SDS011;6073;53.230;10.444;2023-08-30T06:53:45;3.78;;;3.25;;
12024;SDS011;6073;53.230;10.444;2023-08-30T06:56:12;3.60;;;3.15;;
12024;SDS011;6073;53.230;10.444;2023-08-30T06:58:37;4.07;;;3.67;;
12024;SDS011;6073;53.230;10.444;2023-08-30T07:01:03;4.00;;;2.95;;
12024;SDS011;6073;53.230;10.444;2023-08-30T07:03:28;3.58;;;2.90;;
12024;SDS011;6073;53.230;10.444;2023-08-30T07:05:54;3.38;;;2.97;;
12024;SDS011;6073;53.230;10.444;2023-08-30T07:08:20;3.45;;;3.13;;
12024;SDS011;6073;53.230;10.444;2023-08-30T07:10:45;4.15;;;3.50;;
12024;SDS011;6073;53.230;10.444;2023-08-30T07:13:11;5.30;;;3.20;;
12024;SDS011;6073;53.230;10.444;2023-08-30T07:15:38;4.28;;;3.08;;
12024;SDS011;6073;53.230;10.444;2023-08-30T07:18:04;3.40;;;3.10;;
12024;SDS011;6073;53.230;10.444;2023-08-30T07:20:30;3.08;;;2.78;;
12024;SDS011;6073;53.230;10.444;2023-08-30T07:22:56;4.30;;;3.15;;
12024;SDS011;6073;53.230;10.444;2023-08-30T07:25:22;3.22;;;2.60;;
12024;SDS011;6073;53.230;10.444;2023-08-30T07:27:47;2.80;;;2.60;;
12024;SDS011;6073;53.230;10.444;2023-08-30T07:30:13;3.22;;;2.88;;
12024;SDS011;6073;53.230;10.444;2023-08-30T07:32:39;2.90;;;2.70;;
12024;SDS011;6073;53.230;10.444;2023-08-30T07:35:05;3.00;;;2.70;;
12024;SDS011;6073;53.230;10.444;2023-08-30T07:37:31;3.08;;;2.83;;
12024;SDS011;6073;53.230;10.444;2023-08-30T07:39:59;3.20;;;2.90;;
12024;SDS011;6073;53.230;10.444;2023-08-30T07:42:25;4.50;;;3.20;;
12024;SDS011;6073;53.230;10.444;2023-08-30T07:44:50;3.15;;;2.90;;
12024;SDS011;6073;53.230;10.444;2023-08-30T07:47:16;3.28;;;2.97;;
12024;SDS011;6073;53.230;10.444;2023-08-30T07:49:41;4.95;;;2.70;;
12024;SDS011;6073;53.230;10.444;2023-08-30T07:52:07;3.45;;;3.15;;
12024;SDS011;6073;53.230;10.444;2023-08-30T07:54:36;4.63;;;3.38;;
12024;SDS011;6073;53.230;10.444;2023-08-30T07:57:02;4.40;;;2.88;;
12024;SDS011;6073;53.230;10.444;2023-08-30T07:59:35;3.78;;;2.83;;
12024;SDS011;6073;53.230;10.444;2023-08-30T08:02:02;3.65;;;3.30;;
12024;SDS011;6073;53.230;10.444;2023-08-30T08:04:38;3.92;;;3.58;;
12024;SDS011;6073;53.230;10.444;2023-08-30T08:07:07;4.10;;;3.13;;
12024;SDS011;6073;53.230;10.444;2023-08-30T08:09:33;3.78;;;3.47;;
12024;SDS011;6073;53.230;10.444;2023-08-30T08:11:59;3.88;;;3.58;;
12024;SDS011;6073;53.230;10.444;2023-08-30T08:14:25;5.60;;;3.97;;
12024;SDS011;6073;53.230;10.444;2023-08-30T08:16:50;3.83;;;3.42;;
12024;SDS011;6073;53.230;10.444;2023-08-30T08:19:16;5.15;;;3.83;;
12024;SDS011;6073;53.230;10.444;2023-08-30T08:21:42;5.78;;;4.20;;
12024;SDS011;6073;53.230;10.444;2023-08-30T08:24:07;4.32;;;3.92;;
12024;SDS011;6073;53.230;10.444;2023-08-30T08:26:33;5.38;;;3.58;;
12024;SDS011;6073;53.230;10.444;2023-08-30T08:28:59;4.10;;;3.70;;
12024;SDS011;6073;53.230;10.444;2023-08-30T08:31:25;3.10;;;2.88;;
12024;SDS011;6073;53.230;10.444;2023-08-30T08:36:37;3.20;;;2.90;;
12024;SDS011;6073;53.230;10.444;2023-08-30T08:39:04;4.25;;;3.85;;
12024;SDS011;6073;53.230;10.444;2023-08-30T08:41:34;4.32;;;3.92;;
12024;SDS011;6073;53.230;10.444;2023-08-30T08:44:13;3.92;;;3.30;;
12024;SDS011;6073;53.230;10.444;2023-08-30T08:46:40;3.72;;;3.42;;
12024;SDS011;6073;53.230;10.444;2023-08-30T08:49:11;3.70;;;3.40;;
12024;SDS011;6073;53.230;10.444;2023-08-30T08:51:38;6.40;;;3.70;;
12024;SDS011;6073;53.230;10.444;2023-08-30T08:54:04;3.95;;;3.58;;
12024;SDS011;6073;53.230;10.444;2023-08-30T08:56:31;5.25;;;4.03;;
12024;SDS011;6073;53.230;10.444;2023-08-30T08:58:59;4.05;;;3.65;;
12024;SDS011;6073;53.230;10.444;2023-08-30T09:01:25;5.22;;;3.95;;
12024;SDS011;6073;53.230;10.444;2023-08-30T09:03:51;5.95;;;4.00;;
12024;SDS011;6073;53.230;10.444;2023-08-30T09:06:18;4.18;;;3.78;;
12024;SDS011;6073;53.230;10.444;2023-08-30T09:08:44;4.85;;;3.90;;
12024;SDS011;6073;53.230;10.444;2023-08-30T09:11:09;4.22;;;3.53;;
12024;SDS011;6073;53.230;10.444;2023-08-30T09:13:35;5.30;;;3.65;;
12024;SDS011;6073;53.230;10.444;2023-08-30T09:16:01;6.22;;;4.45;;
12024;SDS011;6073;53.230;10.444;2023-08-30T09:18:27;5.68;;;4.47;;
12024;SDS011;6073;53.230;10.444;2023-08-30T09:21:15;4.65;;;4.13;;
12024;SDS011;6073;53.230;10.444;2023-08-30T09:23:39;3.47;;;3.17;;
12024;SDS011;6073;53.230;10.444;2023-08-30T09:26:05;5.28;;;3.08;;
12024;SDS011;6073;53.230;10.444;2023-08-30T09:28:31;6.35;;;3.83;;
12024;SDS011;6073;53.230;10.444;2023-08-30T09:30:57;6.15;;;5.05;;
12024;SDS011;6073;53.230;10.444;2023-08-30T09:33:30;4.43;;;4.03;;
12024;SDS011;6073;53.230;10.444;2023-08-30T09:35:57;5.07;;;3.97;;
12024;SDS011;6073;53.230;10.444;2023-08-30T09:38:23;4.43;;;3.75;;
12024;SDS011;6073;53.230;10.444;2023-08-30T09:40:50;3.28;;;2.97;;
12024;SDS011;6073;53.230;10.444;2023-08-30T09:43:18;6.25;;;4.50;;
12024;SDS011;6073;53.230;10.444;2023-08-30T09:45:47;4.38;;;3.97;;
12024;SDS011;6073;53.230;10.444;2023-08-30T09:48:13;5.45;;;3.35;;
12024;SDS011;6073;53.230;10.444;2023-08-30T09:50:39;6.07;;;4.80;;
12024;SDS011;6073;53.230;10.444;2023-08-30T09:53:10;5.22;;;4.07;;
12024;SDS011;6073;53.230;10.444;2023-08-30T09:55:40;6.22;;;4.35;;
12024;SDS011;6073;53.230;10.444;2023-08-30T09:58:08;6.00;;;4.80;;
12024;SDS011;6073;53.230;10.444;2023-08-30T10:00:34;4.15;;;3.70;;
12024;SDS011;6073;53.230;10.444;2023-08-30T10:02:59;3.70;;;3.40;;
12024;SDS011;6073;53.230;10.444;2023-08-30T10:05:26;4.88;;;3.78;;
12024;SDS011;6073;53.230;10.444;2023-08-30T10:07:52;5.03;;;4.20;;
12024;SDS011;6073;53.230;10.444;2023-08-30T10:10:19;3.75;;;3.20;;
12024;SDS011;6073;53.230;10.444;2023-08-30T10:12:46;3.78;;;3.25;;
12024;SDS011;6073;53.230;10.444;2023-08-30T10:15:12;4.05;;;3.60;;
12024;SDS011;6073;53.230;10.444;2023-08-30T10:17:38;4.93;;;4.43;;
12024;SDS011;6073;53.230;10.444;2023-08-30T10:20:09;4.10;;;3.70;;
12024;SDS011;6073;53.230;10.444;2023-08-30T10:22:37;7.03;;;4.40;;
12024;SDS011;6073;53.230;10.444;2023-08-30T10:25:15;5.43;;;4.28;;
12024;SDS011;6073;53.230;10.444;2023-08-30T10:27:46;4.53;;;3.97;;
12024;SDS011;6073;53.230;10.444;2023-08-30T10:30:13;4.35;;;3.25;;
12024;SDS011;6073;53.230;10.444;2023-08-30T10:32:41;4.25;;;3.38;;
12024;SDS011;6073;53.230;10.444;2023-08-30T10:35:10;4.75;;;4.30;;
12024;SDS011;6073;53.230;10.444;2023-08-30T10:37:37;4.60;;;3.55;;
12024;SDS011;6073;53.230;10.444;2023-08-30T10:40:03;5.90;;;4.15;;
12024;SDS011;6073;53.230;10.444;2023-08-30T10:42:29;4.55;;;4.03;;
12024;SDS011;6073;53.230;10.444;2023-08-30T10:47:27;4.30;;;3.90;;
12024;SDS011;6073;53.230;10.444;2023-08-30T10:49:58;5.55;;;3.78;;
12024;SDS011;6073;53.230;10.444;2023-08-30T10:52:25;5.15;;;4.65;;
12024;SDS011;6073;53.230;10.444;2023-08-30T10:54:51;8.02;;;4.32;;
12024;SDS011;6073;53.230;10.444;2023-08-30T10:57:23;5.72;;;4.80;;
12024;SDS011;6073;53.230;10.444;2023-08-30T11:02:45;4.25;;;3.63;;
12024;SDS011;6073;53.230;10.444;2023-08-30T11:05:13;5.60;;;4.10;;
12024;SDS011;6073;53.230;10.444;2023-08-30T11:07:40;6.28;;;5.32;;
12024;SDS011;6073;53.230;10.444;2023-08-30T11:10:11;5.07;;;4.57;;
12024;SDS011;6073;53.230;10.444;2023-08-30T11:12:49;6.55;;;4.72;;
12024;SDS011;6073;53.230;10.444;2023-08-30T11:15:17;6.70;;;5.03;;
12024;SDS011;6073;53.230;10.444;2023-08-30T11:17:43;5.75;;;4.97;;
12024;SDS011;6073;53.230;10.444;2023-08-30T11:20:10;4.93;;;4.45;;
12024;SDS011;6073;53.230;10.444;2023-08-30T11:22:42;5.95;;;5.05;;
12024;SDS011;6073;53.230;10.444;2023-08-30T11:25:09;5.53;;;4.55;;
12024;SDS011;6073;53.230;10.444;2023-08-30T11:28:22;6.97;;;5.18;;
12024;SDS011;6073;53.230;10.444;2023-08-30T11:30:28;6.25;;;5.65;;
12024;SDS011;6073;53.230;10.444;2023-08-30T11:32:54;6.07;;;4.80;;
12024;SDS011;6073;53.230;10.444;2023-08-30T11:35:20;6.28;;;5.43;;
12024;SDS011;6073;53.230;10.444;2023-08-30T11:37:47;6.85;;;5.45;;
12024;SDS011;6073;53.230;10.444;2023-08-30T11:40:13;6.88;;;5.35;;
12024;SDS011;6073;53.230;10.444;2023-08-30T11:42:39;5.25;;;4.43;;
12024;SDS011;6073;53.230;10.444;2023-08-30T11:45:05;5.57;;;4.28;;
12024;SDS011;6073;53.230;10.444;2023-08-30T11:47:34;4.47;;;4.07;;
12024;SDS011;6073;53.230;10.444;2023-08-30T11:50:00;5.10;;;4.22;;
12024;SDS011;6073;53.230;10.444;2023-08-30T11:52:26;5.07;;;4.13;;
12024;SDS011;6073;53.230;10.444;2023-08-30T11:54:52;4.75;;;3.42;;
12024;SDS011;6073;53.230;10.444;2023-08-30T11:57:19;5.20;;;4.18;;
12024;SDS011;6073;53.230;10.444;2023-08-30T11:59:46;5.35;;;3.42;;
12024;SDS011;6073;53.230;10.444;2023-08-30T12:02:13;4.20;;;3.15;;
12024;SDS011;6073;53.230;10.444;2023-08-30T12:04:40;3.35;;;3.05;;
12024;SDS011;6073;53.230;10.444;2023-08-30T12:07:10;4.97;;;3.63;;
12024;SDS011;6073;53.230;10.444;2023-08-30T12:09:47;3.58;;;3.28;;
12024;SDS011;6073;53.230;10.444;2023-08-30T12:12:13;4.63;;;2.88;;
12024;SDS011;6073;53.230;10.444;2023-08-30T12:14:39;3.75;;;2.92;;
12024;SDS011;6073;53.230;10.444;2023-08-30T12:17:04;2.60;;;2.40;;
12024;SDS011;6073;53.230;10.444;2023-08-30T12:19:31;4.53;;;3.22;;
12024;SDS011;6073;53.230;10.444;2023-08-30T12:22:02;4.57;;;3.20;;
12024;SDS011;6073;53.230;10.444;2023-08-30T12:24:28;5.47;;;3.22;;
12024;SDS011;6073;53.230;10.444;2023-08-30T12:27:05;2.55;;;2.35;;
12024;SDS011;6073;53.230;10.444;2023-08-30T12:29:31;2.72;;;2.42;;
12024;SDS011;6073;53.230;10.444;2023-08-30T12:31:56;3.72;;;3.22;;
12024;SDS011;6073;53.230;10.444;2023-08-30T12:34:22;3.80;;;2.92;;
12024;SDS011;6073;53.230;10.444;2023-08-30T12:36:48;2.95;;;2.65;;
12024;SDS011;6073;53.230;10.444;2023-08-30T12:39:13;3.50;;;2.83;;
12024;SDS011;6073;53.230;10.444;2023-08-30T12:41:39;3.17;;;2.72;;
12024;SDS011;6073;53.230;10.444;2023-08-30T12:44:07;3.72;;;2.58;;
12024;SDS011;6073;53.230;10.444;2023-08-30T12:46:33;4.85;;;3.25;;
12024;SDS011;6073;53.230;10.444;2023-08-30T12:48:59;4.20;;;3.35;;
12024;SDS011;6073;53.230;10.444;2023-08-30T12:51:24;3.13;;;2.60;;
12024;SDS011;6073;53.230;10.444;2023-08-30T12:53:50;3.30;;;3.00;;
12024;SDS011;6073;53.230;10.444;2023-08-30T12:56:15;3.45;;;3.10;;
12024;SDS011;6073;53.230;10.444;2023-08-30T12:58:41;4.80;;;3.83;;
12024;SDS011;6073;53.230;10.444;2023-08-30T13:01:07;6.50;;;3.95;;
12024;SDS011;6073;53.230;10.444;2023-08-30T13:03:32;4.03;;;3.58;;
12024;SDS011;6073;53.230;10.444;2023-08-30T13:05:58;3.55;;;3.10;;
12024;SDS011;6073;53.230;10.444;2023-08-30T13:08:24;4.57;;;3.67;;
12024;SDS011;6073;53.230;10.444;2023-08-30T13:10:49;3.83;;;3.42;;
12024;SDS011;6073;53.230;10.444;2023-08-30T13:13:15;4.55;;;3.35;;
12024;SDS011;6073;53.230;10.444;2023-08-30T13:15:41;4.80;;;3.42;;
12024;SDS011;6073;53.230;10.444;2023-08-30T13:18:06;5.35;;;3.88;;
12024;SDS011;6073;53.230;10.444;2023-08-30T13:20:32;3.33;;;3.03;;
12024;SDS011;6073;53.230;10.444;2023-08-30T13:22:57;5.30;;;3.70;;
12024;SDS011;6073;53.230;10.444;2023-08-30T13:25:23;4.75;;;3.38;;
12024;SDS011;6073;53.230;10.444;2023-08-30T13:27:49;5.35;;;3.60;;
12024;SDS011;6073;53.230;10.444;2023-08-30T13:30:14;4.00;;;3.42;;
12024;SDS011;6073;53.230;10.444;2023-08-30T13:32:40;5.93;;;3.90;;
12024;SDS011;6073;53.230;10.444;2023-08-30T13:35:05;4.63;;;3.65;;
12024;SDS011;6073;53.230;10.444;2023-08-30T13:37:31;5.28;;;4.30;;
12024;SDS011;6073;53.230;10.444;2023-08-30T13:39:57;5.50;;;4.38;;
12024;SDS011;6073;53.230;10.444;2023-08-30T13:42:22;5.80;;;3.72;;
12024;SDS011;6073;53.230;10.444;2023-08-30T13:44:51;4.50;;;3.85;;
12024;SDS011;6073;53.230;10.444;2023-08-30T13:47:17;5.53;;;4.38;;
12024;SDS011;6073;53.230;10.444;2023-08-30T13:49:42;5.30;;;3.95;;
12024;SDS011;6073;53.230;10.444;2023-08-30T13:52:08;5.03;;;3.80;;
12024;SDS011;6073;53.230;10.444;2023-08-30T13:54:33;4.93;;;4.25;;
12024;SDS011;6073;53.230;10.444;2023-08-30T13:56:59;5.35;;;4.28;;
12024;SDS011;6073;53.230;10.444;2023-08-30T13:59:25;5.60;;;4.22;;
12024;SDS011;6073;53.230;10.444;2023-08-30T14:01:50;6.63;;;4.60;;
12024;SDS011;6073;53.230;10.444;2023-08-30T14:04:16;4.47;;;3.13;;
12024;SDS011;6073;53.230;10.444;2023-08-30T14:06:42;4.63;;;3.80;;
12024;SDS011;6073;53.230;10.444;2023-08-30T14:09:07;4.10;;;3.70;;
12024;SDS011;6073;53.230;10.444;2023-08-30T14:11:34;5.50;;;3.47;;
12024;SDS011;6073;53.230;10.444;2023-08-30T14:14:01;5.35;;;3.13;;
12024;SDS011;6073;53.230;10.444;2023-08-30T14:16:27;4.95;;;3.38;;
12024;SDS011;6073;53.230;10.444;2023-08-30T14:18:52;3.33;;;2.47;;
12024;SDS011;6073;53.230;10.444;2023-08-30T14:21:20;5.05;;;3.30;;
12024;SDS011;6073;53.230;10.444;2023-08-30T14:23:45;5.90;;;3.17;;
12024;SDS011;6073;53.230;10.444;2023-08-30T14:26:11;3.50;;;3.20;;
12024;SDS011;6073;53.230;10.444;2023-08-30T14:28:41;4.70;;;3.65;;
12024;SDS011;6073;53.230;10.444;2023-08-30T14:31:07;5.70;;;3.40;;
12024;SDS011;6073;53.230;10.444;2023-08-30T14:33:33;4.85;;;3.13;;
12024;SDS011;6073;53.230;10.444;2023-08-30T14:35:59;4.55;;;3.10;;
12024;SDS011;6073;53.230;10.444;2023-08-30T14:38:27;4.55;;;3.00;;
12024;SDS011;6073;53.230;10.444;2023-08-30T14:41:00;3.85;;;3.22;;
12024;SDS011;6073;53.230;10.444;2023-08-30T14:43:27;3.70;;;2.88;;
12024;SDS011;6073;53.230;10.444;2023-08-30T14:45:59;3.67;;;3.20;;
12024;SDS011;6073;53.230;10.444;2023-08-30T14:48:29;3.30;;;3.00;;
12024;SDS011;6073;53.230;10.444;2023-08-30T14:50:56;3.92;;;3.00;;
12024;SDS011;6073;53.230;10.444;2023-08-30T14:53:23;3.38;;;3.08;;
12024;SDS011;6073;53.230;10.444;2023-08-30T14:55:48;4.32;;;3.05;;